sensor_id;sensor_type;location;lat;lon;timestamp;P1;durP1;ratioP1;P2;durP2;ratioP2
26080;SDS011;13991;51.174;4.438;2023-02-23T00:01:30;135.60;;;60.50;;
26080;SDS011;13991;51.174;4.438;2023-02-23T00:03:56;115.70;;;51.03;;
26080;SDS011;13991;51.174;4.438;2023-02-23T00:06:24;118.73;;;49.43;;
26080;SDS011;13991;51.174;4.438;2023-02-23T00:08:50;126.13;;;51.67;;
26080;SDS011;13991;51.174;4.438;2023-02-23T00:11:17;113.27;;;49.70;;
26080;SDS011;13991;51.174;4.438;2023-02-23T00:13:45;114.50;;;49.00;;
26080;SDS011;13991;51.174;4.438;2023-02-23T00:16:18;123.93;;;49.40;;
26080;SDS011;13991;51.174;4.438;2023-02-23T00:18:50;120.80;;;50.50;;
26080;SDS011;13991;51.174;4.438;2023-02-23T00:21:24;109.13;;;47.73;;
26080;SDS011;13991;51.174;4.438;2023-02-23T00:23:58;110.83;;;47.40;;
26080;SDS011;13991;51.174;4.438;2023-02-23T00:26:35;141.17;;;52.97;;
26080;SDS011;13991;51.174;4.438;2023-02-23T00:29:09;133.80;;;52.10;;
26080;SDS011;13991;51.174;4.438;2023-02-23T00:31:37;140.43;;;52.17;;
26080;SDS011;13991;51.174;4.438;2023-02-23T00:34:03;140.60;;;54.17;;
26080;SDS011;13991;51.174;4.438;2023-02-23T00:36:31;147.27;;;53.37;;
26080;SDS011;13991;51.174;4.438;2023-02-23T00:38:58;151.27;;;53.33;;
26080;SDS011;13991;51.174;4.438;2023-02-23T00:41:35;142.10;;;53.20;;
26080;SDS011;13991;51.174;4.438;2023-02-23T00:44:01;148.47;;;52.73;;
26080;SDS011;13991;51.174;4.438;2023-02-23T00:46:27;154.43;;;55.27;;
26080;SDS011;13991;51.174;4.438;2023-02-23T00:48:55;164.97;;;56.97;;
26080;SDS011;13991;51.174;4.438;2023-02-23T00:51:22;156.53;;;51.17;;
26080;SDS011;13991;51.174;4.438;2023-02-23T00:53:54;147.10;;;50.60;;
26080;SDS011;13991;51.174;4.438;2023-02-23T00:56:24;141.63;;;48.80;;
26080;SDS011;13991;51.174;4.438;2023-02-23T00:58:51;142.30;;;48.07;;
26080;SDS011;13991;51.174;4.438;2023-02-23T01:01:17;143.50;;;47.77;;
26080;SDS011;13991;51.174;4.438;2023-02-23T01:03:44;156.73;;;50.30;;
26080;SDS011;13991;51.174;4.438;2023-02-23T01:06:11;151.10;;;51.47;;
26080;SDS011;13991;51.174;4.438;2023-02-23T01:08:39;143.37;;;48.67;;
26080;SDS011;13991;51.174;4.438;2023-02-23T01:11:10;147.67;;;47.97;;
26080;SDS011;13991;51.174;4.438;2023-02-23T01:13:39;144.53;;;48.40;;
26080;SDS011;13991;51.174;4.438;2023-02-23T01:16:07;142.47;;;49.03;;
26080;SDS011;13991;51.174;4.438;2023-02-23T01:18:34;141.03;;;47.30;;
26080;SDS011;13991;51.174;4.438;2023-02-23T01:21:01;148.30;;;47.50;;
26080;SDS011;13991;51.174;4.438;2023-02-23T01:23:29;144.33;;;48.13;;
26080;SDS011;13991;51.174;4.438;2023-02-23T01:25:56;127.57;;;45.67;;
26080;SDS011;13991;51.174;4.438;2023-02-23T01:28:22;142.23;;;48.43;;
26080;SDS011;13991;51.174;4.438;2023-02-23T01:30:48;146.07;;;48.57;;
26080;SDS011;13991;51.174;4.438;2023-02-23T01:33:14;132.87;;;47.47;;
26080;SDS011;13991;51.174;4.438;2023-02-23T01:35:39;131.80;;;47.43;;
26080;SDS011;13991;51.174;4.438;2023-02-23T01:38:07;129.60;;;46.47;;
26080;SDS011;13991;51.174;4.438;2023-02-23T01:40:34;132.50;;;47.57;;
26080;SDS011;13991;51.174;4.438;2023-02-23T01:43:13;119.60;;;47.10;;
26080;SDS011;13991;51.174;4.438;2023-02-23T01:45:41;116.10;;;44.67;;
26080;SDS011;13991;51.174;4.438;2023-02-23T01:48:13;116.93;;;45.63;;
26080;SDS011;13991;51.174;4.438;2023-02-23T01:53:27;113.03;;;44.30;;
26080;SDS011;13991;51.174;4.438;2023-02-23T01:55:59;114.33;;;42.23;;
26080;SDS011;13991;51.174;4.438;2023-02-23T01:58:27;123.87;;;42.30;;
26080;SDS011;13991;51.174;4.438;2023-02-23T02:00:57;108.77;;;38.80;;
26080;SDS011;13991;51.174;4.438;2023-02-23T02:06:21;108.90;;;37.13;;
26080;SDS011;13991;51.174;4.438;2023-02-23T02:08:52;113.47;;;35.43;;
26080;SDS011;13991;51.174;4.438;2023-02-23T02:11:21;106.33;;;31.33;;
26080;SDS011;13991;51.174;4.438;2023-02-23T02:28:25;116.23;;;34.03;;
26080;SDS011;13991;51.174;4.438;2023-02-23T02:39:23;91.37;;;31.60;;
26080;SDS011;13991;51.174;4.438;2023-02-23T02:42:15;79.77;;;29.43;;
26080;SDS011;13991;51.174;4.438;2023-02-23T02:44:49;84.03;;;28.60;;
26080;SDS011;13991;51.174;4.438;2023-02-23T02:47:33;71.90;;;28.50;;
26080;SDS011;13991;51.174;4.438;2023-02-23T02:50:09;69.67;;;27.67;;
26080;SDS011;13991;51.174;4.438;2023-02-23T02:52:47;75.53;;;26.97;;
26080;SDS011;13991;51.174;4.438;2023-02-23T02:55:16;75.20;;;26.93;;
26080;SDS011;13991;51.174;4.438;2023-02-23T02:57:48;72.83;;;27.57;;
26080;SDS011;13991;51.174;4.438;2023-02-23T03:00:19;68.17;;;28.53;;
26080;SDS011;13991;51.174;4.438;2023-02-23T03:06:30;73.50;;;28.63;;
26080;SDS011;13991;51.174;4.438;2023-02-23T03:21:53;90.70;;;32.50;;
26080;SDS011;13991;51.174;4.438;2023-02-23T03:27:38;96.03;;;35.27;;
26080;SDS011;13991;51.174;4.438;2023-02-23T03:30:38;99.43;;;38.00;;
26080;SDS011;13991;51.174;4.438;2023-02-23T03:33:41;90.97;;;36.07;;
26080;SDS011;13991;51.174;4.438;2023-02-23T03:36:31;103.43;;;39.60;;
26080;SDS011;13991;51.174;4.438;2023-02-23T03:39:20;108.60;;;41.20;;
26080;SDS011;13991;51.174;4.438;2023-02-23T03:42:20;111.43;;;40.27;;
26080;SDS011;13991;51.174;4.438;2023-02-23T03:45:12;105.47;;;39.80;;
26080;SDS011;13991;51.174;4.438;2023-02-23T03:48:00;100.40;;;39.27;;
26080;SDS011;13991;51.174;4.438;2023-02-23T03:50:53;112.20;;;41.43;;
26080;SDS011;13991;51.174;4.438;2023-02-23T03:53:46;115.97;;;42.93;;
26080;SDS011;13991;51.174;4.438;2023-02-23T03:56:51;119.00;;;42.57;;
26080;SDS011;13991;51.174;4.438;2023-02-23T03:59:49;117.90;;;44.13;;
26080;SDS011;13991;51.174;4.438;2023-02-23T04:02:40;127.07;;;44.80;;
26080;SDS011;13991;51.174;4.438;2023-02-23T04:05:27;125.13;;;45.03;;
26080;SDS011;13991;51.174;4.438;2023-02-23T04:08:14;126.17;;;45.03;;
26080;SDS011;13991;51.174;4.438;2023-02-23T04:11:06;130.23;;;46.87;;
26080;SDS011;13991;51.174;4.438;2023-02-23T04:14:36;122.57;;;45.17;;
26080;SDS011;13991;51.174;4.438;2023-02-23T04:17:15;126.80;;;46.03;;
26080;SDS011;13991;51.174;4.438;2023-02-23T04:19:49;130.80;;;46.50;;
26080;SDS011;13991;51.174;4.438;2023-02-23T04:22:16;128.27;;;47.80;;
26080;SDS011;13991;51.174;4.438;2023-02-23T04:24:41;127.27;;;47.93;;
26080;SDS011;13991;51.174;4.438;2023-02-23T04:27:07;126.60;;;47.67;;
26080;SDS011;13991;51.174;4.438;2023-02-23T04:29:33;136.27;;;48.60;;
26080;SDS011;13991;51.174;4.438;2023-02-23T04:31:58;130.93;;;46.30;;
26080;SDS011;13991;51.174;4.438;2023-02-23T04:34:24;125.73;;;46.30;;
26080;SDS011;13991;51.174;4.438;2023-02-23T04:36:49;127.00;;;48.07;;
26080;SDS011;13991;51.174;4.438;2023-02-23T04:39:15;130.50;;;48.43;;
26080;SDS011;13991;51.174;4.438;2023-02-23T04:41:41;143.27;;;48.93;;
26080;SDS011;13991;51.174;4.438;2023-02-23T04:44:07;136.50;;;47.53;;
26080;SDS011;13991;51.174;4.438;2023-02-23T04:46:32;130.63;;;47.10;;
26080;SDS011;13991;51.174;4.438;2023-02-23T04:48:58;131.13;;;47.67;;
26080;SDS011;13991;51.174;4.438;2023-02-23T04:51:24;136.10;;;47.73;;
26080;SDS011;13991;51.174;4.438;2023-02-23T04:53:55;133.93;;;49.67;;
26080;SDS011;13991;51.174;4.438;2023-02-23T04:56:20;129.00;;;45.93;;
26080;SDS011;13991;51.174;4.438;2023-02-23T04:58:46;129.53;;;46.70;;
26080;SDS011;13991;51.174;4.438;2023-02-23T05:01:11;131.27;;;46.93;;
26080;SDS011;13991;51.174;4.438;2023-02-23T05:03:37;135.87;;;48.80;;
26080;SDS011;13991;51.174;4.438;2023-02-23T05:06:03;132.90;;;45.80;;
26080;SDS011;13991;51.174;4.438;2023-02-23T05:08:29;131.47;;;47.60;;
26080;SDS011;13991;51.174;4.438;2023-02-23T05:10:55;144.17;;;49.73;;
26080;SDS011;13991;51.174;4.438;2023-02-23T05:13:20;135.90;;;47.43;;
26080;SDS011;13991;51.174;4.438;2023-02-23T05:15:46;119.57;;;45.73;;
26080;SDS011;13991;51.174;4.438;2023-02-23T05:18:12;137.27;;;46.77;;
26080;SDS011;13991;51.174;4.438;2023-02-23T05:20:40;129.47;;;48.37;;
26080;SDS011;13991;51.174;4.438;2023-02-23T05:23:08;132.37;;;46.43;;
26080;SDS011;13991;51.174;4.438;2023-02-23T05:25:36;125.67;;;44.53;;
26080;SDS011;13991;51.174;4.438;2023-02-23T05:28:02;131.27;;;49.17;;
26080;SDS011;13991;51.174;4.438;2023-02-23T05:30:29;132.57;;;46.20;;
26080;SDS011;13991;51.174;4.438;2023-02-23T05:32:55;137.00;;;48.30;;
26080;SDS011;13991;51.174;4.438;2023-02-23T05:35:21;140.07;;;48.10;;
26080;SDS011;13991;51.174;4.438;2023-02-23T05:37:47;128.93;;;49.17;;
26080;SDS011;13991;51.174;4.438;2023-02-23T05:40:12;142.20;;;54.35;;
26080;SDS011;13991;51.174;4.438;2023-02-23T05:42:38;144.07;;;56.53;;
26080;SDS011;13991;51.174;4.438;2023-02-23T05:45:04;137.43;;;49.63;;
26080;SDS011;13991;51.174;4.438;2023-02-23T05:47:31;120.83;;;46.97;;
26080;SDS011;13991;51.174;4.438;2023-02-23T05:49:59;125.13;;;45.90;;
26080;SDS011;13991;51.174;4.438;2023-02-23T05:52:26;123.90;;;45.17;;
26080;SDS011;13991;51.174;4.438;2023-02-23T05:54:52;123.17;;;44.77;;
26080;SDS011;13991;51.174;4.438;2023-02-23T05:57:17;126.90;;;47.27;;
26080;SDS011;13991;51.174;4.438;2023-02-23T05:59:43;126.67;;;46.67;;
26080;SDS011;13991;51.174;4.438;2023-02-23T06:02:09;130.77;;;48.60;;
26080;SDS011;13991;51.174;4.438;2023-02-23T06:04:34;120.20;;;46.10;;
26080;SDS011;13991;51.174;4.438;2023-02-23T06:07:00;130.73;;;47.47;;
26080;SDS011;13991;51.174;4.438;2023-02-23T06:09:26;127.83;;;48.10;;
26080;SDS011;13991;51.174;4.438;2023-02-23T06:11:51;124.10;;;45.10;;
26080;SDS011;13991;51.174;4.438;2023-02-23T06:14:17;124.03;;;46.00;;
26080;SDS011;13991;51.174;4.438;2023-02-23T06:16:43;119.97;;;44.53;;
26080;SDS011;13991;51.174;4.438;2023-02-23T06:19:09;112.27;;;43.40;;
26080;SDS011;13991;51.174;4.438;2023-02-23T06:21:35;127.50;;;44.50;;
26080;SDS011;13991;51.174;4.438;2023-02-23T06:24:01;123.57;;;42.63;;
26080;SDS011;13991;51.174;4.438;2023-02-23T06:26:27;125.90;;;47.67;;
26080;SDS011;13991;51.174;4.438;2023-02-23T06:28:53;115.53;;;45.33;;
26080;SDS011;13991;51.174;4.438;2023-02-23T06:31:19;125.27;;;46.47;;
26080;SDS011;13991;51.174;4.438;2023-02-23T06:33:45;113.43;;;43.10;;
26080;SDS011;13991;51.174;4.438;2023-02-23T06:36:12;122.83;;;44.93;;
26080;SDS011;13991;51.174;4.438;2023-02-23T06:38:38;115.80;;;43.27;;
26080;SDS011;13991;51.174;4.438;2023-02-23T06:41:07;116.47;;;42.50;;
26080;SDS011;13991;51.174;4.438;2023-02-23T06:43:33;115.97;;;42.60;;
26080;SDS011;13991;51.174;4.438;2023-02-23T06:45:59;118.53;;;44.83;;
26080;SDS011;13991;51.174;4.438;2023-02-23T06:48:25;128.70;;;47.30;;
26080;SDS011;13991;51.174;4.438;2023-02-23T06:50:51;121.53;;;43.87;;
26080;SDS011;13991;51.174;4.438;2023-02-23T06:53:17;125.47;;;45.77;;
26080;SDS011;13991;51.174;4.438;2023-02-23T06:55:44;111.87;;;44.73;;
26080;SDS011;13991;51.174;4.438;2023-02-23T06:58:10;123.17;;;45.80;;
26080;SDS011;13991;51.174;4.438;2023-02-23T07:00:36;125.30;;;46.43;;
26080;SDS011;13991;51.174;4.438;2023-02-23T07:03:07;122.90;;;46.77;;
26080;SDS011;13991;51.174;4.438;2023-02-23T07:05:32;117.10;;;44.17;;
26080;SDS011;13991;51.174;4.438;2023-02-23T07:07:58;114.83;;;45.03;;
26080;SDS011;13991;51.174;4.438;2023-02-23T07:10:23;125.40;;;47.50;;
26080;SDS011;13991;51.174;4.438;2023-02-23T07:12:49;123.30;;;46.87;;
26080;SDS011;13991;51.174;4.438;2023-02-23T07:15:17;114.63;;;44.37;;
26080;SDS011;13991;51.174;4.438;2023-02-23T07:17:44;116.40;;;43.57;;
26080;SDS011;13991;51.174;4.438;2023-02-23T07:20:12;118.20;;;44.80;;
26080;SDS011;13991;51.174;4.438;2023-02-23T07:22:39;120.93;;;46.33;;
26080;SDS011;13991;51.174;4.438;2023-02-23T07:25:05;125.57;;;46.13;;
26080;SDS011;13991;51.174;4.438;2023-02-23T07:27:32;126.27;;;46.23;;
26080;SDS011;13991;51.174;4.438;2023-02-23T07:29:58;132.33;;;46.37;;
26080;SDS011;13991;51.174;4.438;2023-02-23T07:32:24;127.47;;;49.80;;
26080;SDS011;13991;51.174;4.438;2023-02-23T07:34:49;126.33;;;47.63;;
26080;SDS011;13991;51.174;4.438;2023-02-23T07:37:15;119.63;;;45.67;;
26080;SDS011;13991;51.174;4.438;2023-02-23T07:39:41;111.33;;;44.40;;
26080;SDS011;13991;51.174;4.438;2023-02-23T07:42:07;125.20;;;47.77;;
26080;SDS011;13991;51.174;4.438;2023-02-23T07:44:33;123.37;;;47.67;;
26080;SDS011;13991;51.174;4.438;2023-02-23T07:46:59;122.10;;;47.63;;
26080;SDS011;13991;51.174;4.438;2023-02-23T07:49:25;129.03;;;49.57;;
26080;SDS011;13991;51.174;4.438;2023-02-23T07:51:50;125.53;;;46.60;;
26080;SDS011;13991;51.174;4.438;2023-02-23T07:54:16;133.30;;;52.33;;
26080;SDS011;13991;51.174;4.438;2023-02-23T07:56:42;128.80;;;50.23;;
26080;SDS011;13991;51.174;4.438;2023-02-23T07:59:07;141.10;;;48.03;;
26080;SDS011;13991;51.174;4.438;2023-02-23T08:01:33;129.63;;;49.70;;
26080;SDS011;13991;51.174;4.438;2023-02-23T08:03:59;124.43;;;47.10;;
26080;SDS011;13991;51.174;4.438;2023-02-23T08:06:25;144.63;;;50.33;;
26080;SDS011;13991;51.174;4.438;2023-02-23T08:08:51;141.60;;;50.67;;
26080;SDS011;13991;51.174;4.438;2023-02-23T08:11:17;127.17;;;49.37;;
26080;SDS011;13991;51.174;4.438;2023-02-23T08:13:43;125.50;;;47.50;;
26080;SDS011;13991;51.174;4.438;2023-02-23T08:16:08;112.93;;;45.70;;
26080;SDS011;13991;51.174;4.438;2023-02-23T08:18:36;132.40;;;48.00;;
26080;SDS011;13991;51.174;4.438;2023-02-23T08:21:02;115.93;;;44.40;;
26080;SDS011;13991;51.174;4.438;2023-02-23T08:23:29;110.23;;;44.47;;
26080;SDS011;13991;51.174;4.438;2023-02-23T08:25:59;115.23;;;45.40;;
26080;SDS011;13991;51.174;4.438;2023-02-23T08:28:26;111.30;;;44.83;;
26080;SDS011;13991;51.174;4.438;2023-02-23T08:30:53;130.37;;;46.30;;
26080;SDS011;13991;51.174;4.438;2023-02-23T08:33:19;125.10;;;44.33;;
26080;SDS011;13991;51.174;4.438;2023-02-23T08:35:44;112.57;;;44.50;;
26080;SDS011;13991;51.174;4.438;2023-02-23T08:38:10;108.93;;;42.77;;
26080;SDS011;13991;51.174;4.438;2023-02-23T08:40:36;102.53;;;41.83;;
26080;SDS011;13991;51.174;4.438;2023-02-23T08:43:01;102.60;;;42.07;;
26080;SDS011;13991;51.174;4.438;2023-02-23T08:45:27;111.50;;;44.33;;
26080;SDS011;13991;51.174;4.438;2023-02-23T08:47:53;109.53;;;43.20;;
26080;SDS011;13991;51.174;4.438;2023-02-23T08:50:20;122.27;;;44.93;;
26080;SDS011;13991;51.174;4.438;2023-02-23T08:52:46;120.23;;;45.20;;
26080;SDS011;13991;51.174;4.438;2023-02-23T08:55:12;123.40;;;45.53;;
26080;SDS011;13991;51.174;4.438;2023-02-23T08:57:40;113.43;;;44.87;;
26080;SDS011;13991;51.174;4.438;2023-02-23T09:00:06;112.87;;;42.47;;
26080;SDS011;13991;51.174;4.438;2023-02-23T09:02:38;112.33;;;44.40;;
26080;SDS011;13991;51.174;4.438;2023-02-23T09:05:05;123.70;;;46.30;;
26080;SDS011;13991;51.174;4.438;2023-02-23T09:07:31;107.47;;;43.17;;
26080;SDS011;13991;51.174;4.438;2023-02-23T09:09:57;105.40;;;44.37;;
26080;SDS011;13991;51.174;4.438;2023-02-23T09:12:23;110.20;;;44.30;;
26080;SDS011;13991;51.174;4.438;2023-02-23T09:14:49;116.90;;;43.93;;
26080;SDS011;13991;51.174;4.438;2023-02-23T09:17:17;119.20;;;43.93;;
26080;SDS011;13991;51.174;4.438;2023-02-23T09:19:43;104.93;;;42.50;;
26080;SDS011;13991;51.174;4.438;2023-02-23T09:22:09;102.03;;;43.07;;
26080;SDS011;13991;51.174;4.438;2023-02-23T09:24:35;99.77;;;41.07;;
26080;SDS011;13991;51.174;4.438;2023-02-23T09:27:02;111.10;;;43.37;;
26080;SDS011;13991;51.174;4.438;2023-02-23T09:29:28;112.70;;;42.97;;
26080;SDS011;13991;51.174;4.438;2023-02-23T09:31:54;119.57;;;44.63;;
26080;SDS011;13991;51.174;4.438;2023-02-23T09:34:22;110.90;;;43.63;;
26080;SDS011;13991;51.174;4.438;2023-02-23T09:36:48;126.40;;;47.13;;
26080;SDS011;13991;51.174;4.438;2023-02-23T09:39:13;117.43;;;45.00;;
26080;SDS011;13991;51.174;4.438;2023-02-23T09:47:56;115.53;;;44.90;;
26080;SDS011;13991;51.174;4.438;2023-02-23T09:50:28;114.63;;;46.07;;
26080;SDS011;13991;51.174;4.438;2023-02-23T09:52:59;120.33;;;45.83;;
26080;SDS011;13991;51.174;4.438;2023-02-23T09:55:30;116.67;;;47.63;;
26080;SDS011;13991;51.174;4.438;2023-02-23T09:57:56;125.03;;;49.13;;
26080;SDS011;13991;51.174;4.438;2023-02-23T10:00:30;138.20;;;47.53;;
26080;SDS011;13991;51.174;4.438;2023-02-23T10:03:12;140.03;;;49.60;;
26080;SDS011;13991;51.174;4.438;2023-02-23T10:05:43;131.87;;;47.60;;
26080;SDS011;13991;51.174;4.438;2023-02-23T10:08:24;121.10;;;46.33;;
26080;SDS011;13991;51.174;4.438;2023-02-23T10:17:28;112.03;;;44.80;;
26080;SDS011;13991;51.174;4.438;2023-02-23T10:23:07;101.17;;;42.10;;
26080;SDS011;13991;51.174;4.438;2023-02-23T10:25:39;107.80;;;41.53;;
26080;SDS011;13991;51.174;4.438;2023-02-23T10:28:11;110.03;;;43.57;;
26080;SDS011;13991;51.174;4.438;2023-02-23T10:30:45;106.27;;;41.37;;
26080;SDS011;13991;51.174;4.438;2023-02-23T10:33:14;108.67;;;43.17;;
26080;SDS011;13991;51.174;4.438;2023-02-23T10:35:57;101.97;;;44.03;;
26080;SDS011;13991;51.174;4.438;2023-02-23T10:38:34;109.87;;;43.93;;
26080;SDS011;13991;51.174;4.438;2023-02-23T10:41:00;101.67;;;41.20;;
26080;SDS011;13991;51.174;4.438;2023-02-23T10:43:28;102.53;;;43.00;;
26080;SDS011;13991;51.174;4.438;2023-02-23T10:45:53;103.20;;;43.37;;
26080;SDS011;13991;51.174;4.438;2023-02-23T10:48:24;100.57;;;43.57;;
26080;SDS011;13991;51.174;4.438;2023-02-23T10:50:56;104.87;;;42.87;;
26080;SDS011;13991;51.174;4.438;2023-02-23T10:53:30;101.83;;;44.00;;
26080;SDS011;13991;51.174;4.438;2023-02-23T10:56:12;111.00;;;43.47;;
26080;SDS011;13991;51.174;4.438;2023-02-23T10:58:45;96.63;;;42.30;;
26080;SDS011;13991;51.174;4.438;2023-02-23T11:01:11;93.30;;;40.80;;
26080;SDS011;13991;51.174;4.438;2023-02-23T11:03:43;106.37;;;42.93;;
26080;SDS011;13991;51.174;4.438;2023-02-23T11:08:52;95.37;;;42.03;;
26080;SDS011;13991;51.174;4.438;2023-02-23T11:11:25;103.53;;;42.73;;
26080;SDS011;13991;51.174;4.438;2023-02-23T11:13:55;99.37;;;41.97;;
26080;SDS011;13991;51.174;4.438;2023-02-23T11:16:22;88.63;;;41.07;;
26080;SDS011;13991;51.174;4.438;2023-02-23T11:19:02;97.03;;;42.50;;
26080;SDS011;13991;51.174;4.438;2023-02-23T11:21:33;100.30;;;41.60;;
26080;SDS011;13991;51.174;4.438;2023-02-23T11:26:42;104.30;;;42.60;;
26080;SDS011;13991;51.174;4.438;2023-02-23T11:29:13;96.63;;;40.50;;
26080;SDS011;13991;51.174;4.438;2023-02-23T11:31:57;88.87;;;39.70;;
26080;SDS011;13991;51.174;4.438;2023-02-23T11:34:30;99.80;;;41.70;;
26080;SDS011;13991;51.174;4.438;2023-02-23T11:36:59;88.70;;;39.37;;
26080;SDS011;13991;51.174;4.438;2023-02-23T11:39:26;88.27;;;39.53;;
26080;SDS011;13991;51.174;4.438;2023-02-23T11:44:38;86.87;;;39.00;;
26080;SDS011;13991;51.174;4.438;2023-02-23T11:47:04;87.10;;;38.83;;
26080;SDS011;13991;51.174;4.438;2023-02-23T11:49:37;87.10;;;38.50;;
26080;SDS011;13991;51.174;4.438;2023-02-23T11:52:03;88.77;;;38.47;;
26080;SDS011;13991;51.174;4.438;2023-02-23T11:54:40;87.73;;;39.23;;
26080;SDS011;13991;51.174;4.438;2023-02-23T11:57:22;107.10;;;38.23;;
26080;SDS011;13991;51.174;4.438;2023-02-23T11:59:50;98.87;;;38.10;;
26080;SDS011;13991;51.174;4.438;2023-02-23T12:02:24;84.70;;;37.23;;
26080;SDS011;13991;51.174;4.438;2023-02-23T12:05:16;94.87;;;37.00;;
26080;SDS011;13991;51.174;4.438;2023-02-23T12:24:18;81.87;;;36.50;;
26080;SDS011;13991;51.174;4.438;2023-02-23T12:32:48;81.63;;;32.20;;
26080;SDS011;13991;51.174;4.438;2023-02-23T12:35:26;79.67;;;33.97;;
26080;SDS011;13991;51.174;4.438;2023-02-23T12:38:11;89.87;;;37.03;;
26080;SDS011;13991;51.174;4.438;2023-02-23T12:41:16;82.17;;;34.60;;
26080;SDS011;13991;51.174;4.438;2023-02-23T12:46:17;89.07;;;34.33;;
26080;SDS011;13991;51.174;4.438;2023-02-23T12:49:10;98.47;;;35.80;;
26080;SDS011;13991;51.174;4.438;2023-02-23T12:51:53;89.90;;;34.17;;
26080;SDS011;13991;51.174;4.438;2023-02-23T12:54:32;76.53;;;33.60;;
26080;SDS011;13991;51.174;4.438;2023-02-23T12:59:57;81.37;;;33.50;;
26080;SDS011;13991;51.174;4.438;2023-02-23T13:05:43;73.43;;;29.20;;
26080;SDS011;13991;51.174;4.438;2023-02-23T13:11:45;65.13;;;28.23;;
26080;SDS011;13991;51.174;4.438;2023-02-23T13:14:24;69.83;;;27.30;;
26080;SDS011;13991;51.174;4.438;2023-02-23T13:19:46;57.43;;;26.57;;
26080;SDS011;13991;51.174;4.438;2023-02-23T13:22:28;60.00;;;26.03;;
26080;SDS011;13991;51.174;4.438;2023-02-23T13:25:24;59.70;;;23.77;;
26080;SDS011;13991;51.174;4.438;2023-02-23T13:28:05;55.40;;;23.40;;
26080;SDS011;13991;51.174;4.438;2023-02-23T13:30:38;53.40;;;22.00;;
26080;SDS011;13991;51.174;4.438;2023-02-23T13:33:14;57.53;;;23.80;;
26080;SDS011;13991;51.174;4.438;2023-02-23T13:35:47;53.90;;;21.47;;
26080;SDS011;13991;51.174;4.438;2023-02-23T13:38:16;51.30;;;22.20;;
26080;SDS011;13991;51.174;4.438;2023-02-23T13:40:51;54.47;;;23.60;;
26080;SDS011;13991;51.174;4.438;2023-02-23T13:55:02;51.27;;;19.87;;
26080;SDS011;13991;51.174;4.438;2023-02-23T13:57:28;48.63;;;21.40;;
26080;SDS011;13991;51.174;4.438;2023-02-23T13:59:56;45.50;;;19.83;;
26080;SDS011;13991;51.174;4.438;2023-02-23T14:07:54;42.37;;;19.47;;
26080;SDS011;13991;51.174;4.438;2023-02-23T14:10:36;41.53;;;17.87;;
26080;SDS011;13991;51.174;4.438;2023-02-23T14:20:54;34.00;;;16.23;;
26080;SDS011;13991;51.174;4.438;2023-02-23T14:29:27;33.10;;;13.03;;
26080;SDS011;13991;51.174;4.438;2023-02-23T14:37:25;31.17;;;14.07;;
26080;SDS011;13991;51.174;4.438;2023-02-23T14:40:17;23.37;;;13.30;;
26080;SDS011;13991;51.174;4.438;2023-02-23T14:42:49;23.30;;;11.70;;
26080;SDS011;13991;51.174;4.438;2023-02-23T14:45:23;21.30;;;11.07;;
26080;SDS011;13991;51.174;4.438;2023-02-23T14:48:06;18.57;;;10.63;;
26080;SDS011;13991;51.174;4.438;2023-02-23T14:50:42;17.20;;;10.27;;
26080;SDS011;13991;51.174;4.438;2023-02-23T14:53:19;22.37;;;10.20;;
26080;SDS011;13991;51.174;4.438;2023-02-23T14:55:47;19.23;;;9.87;;
26080;SDS011;13991;51.174;4.438;2023-02-23T14:58:31;15.70;;;9.60;;
26080;SDS011;13991;51.174;4.438;2023-02-23T15:00:57;22.57;;;9.80;;
26080;SDS011;13991;51.174;4.438;2023-02-23T15:03:23;16.83;;;9.97;;
26080;SDS011;13991;51.174;4.438;2023-02-23T15:05:50;17.70;;;9.73;;
26080;SDS011;13991;51.174;4.438;2023-02-23T15:08:29;23.50;;;10.03;;
26080;SDS011;13991;51.174;4.438;2023-02-23T15:11:11;26.17;;;9.77;;
26080;SDS011;13991;51.174;4.438;2023-02-23T15:13:39;20.37;;;8.87;;
26080;SDS011;13991;51.174;4.438;2023-02-23T15:16:15;16.67;;;8.47;;
26080;SDS011;13991;51.174;4.438;2023-02-23T15:18:50;18.03;;;8.97;;
26080;SDS011;13991;51.174;4.438;2023-02-23T15:21:18;27.40;;;10.17;;
26080;SDS011;13991;51.174;4.438;2023-02-23T15:23:51;23.73;;;9.80;;
26080;SDS011;13991;51.174;4.438;2023-02-23T15:29:02;18.87;;;9.23;;
26080;SDS011;13991;51.174;4.438;2023-02-23T15:31:37;21.20;;;10.33;;
26080;SDS011;13991;51.174;4.438;2023-02-23T15:34:15;23.23;;;11.27;;
26080;SDS011;13991;51.174;4.438;2023-02-23T15:36:44;22.47;;;11.20;;
26080;SDS011;13991;51.174;4.438;2023-02-23T15:39:17;18.90;;;10.60;;
26080;SDS011;13991;51.174;4.438;2023-02-23T15:41:58;23.63;;;11.27;;
26080;SDS011;13991;51.174;4.438;2023-02-23T15:44:24;20.63;;;10.90;;
26080;SDS011;13991;51.174;4.438;2023-02-23T15:46:53;21.50;;;10.50;;
26080;SDS011;13991;51.174;4.438;2023-02-23T15:49:21;22.23;;;11.50;;
26080;SDS011;13991;51.174;4.438;2023-02-23T15:51:56;26.53;;;10.80;;
26080;SDS011;13991;51.174;4.438;2023-02-23T15:54:28;29.17;;;10.00;;
26080;SDS011;13991;51.174;4.438;2023-02-23T15:57:06;28.00;;;11.70;;
26080;SDS011;13991;51.174;4.438;2023-02-23T15:59:44;20.93;;;10.60;;
26080;SDS011;13991;51.174;4.438;2023-02-23T16:02:22;22.40;;;10.53;;
26080;SDS011;13991;51.174;4.438;2023-02-23T16:04:49;21.40;;;10.67;;
26080;SDS011;13991;51.174;4.438;2023-02-23T16:12:18;20.53;;;9.60;;
26080;SDS011;13991;51.174;4.438;2023-02-23T16:14:53;21.20;;;9.93;;
26080;SDS011;13991;51.174;4.438;2023-02-23T16:19:52;29.63;;;9.03;;
26080;SDS011;13991;51.174;4.438;2023-02-23T16:22:21;24.97;;;9.10;;
26080;SDS011;13991;51.174;4.438;2023-02-23T16:24:52;17.27;;;7.80;;
26080;SDS011;13991;51.174;4.438;2023-02-23T16:27:23;19.90;;;9.23;;
26080;SDS011;13991;51.174;4.438;2023-02-23T16:29:54;17.40;;;8.37;;
26080;SDS011;13991;51.174;4.438;2023-02-23T16:32:40;20.80;;;8.77;;
26080;SDS011;13991;51.174;4.438;2023-02-23T16:35:14;16.80;;;7.80;;
26080;SDS011;13991;51.174;4.438;2023-02-23T16:40:36;20.43;;;8.07;;
26080;SDS011;13991;51.174;4.438;2023-02-23T16:43:03;19.27;;;8.33;;
26080;SDS011;13991;51.174;4.438;2023-02-23T16:45:28;22.73;;;9.30;;
26080;SDS011;13991;51.174;4.438;2023-02-23T16:47:54;24.10;;;9.10;;
26080;SDS011;13991;51.174;4.438;2023-02-23T16:50:25;21.83;;;9.07;;
26080;SDS011;13991;51.174;4.438;2023-02-23T16:52:52;21.43;;;9.10;;
26080;SDS011;13991;51.174;4.438;2023-02-23T16:55:20;16.17;;;8.53;;
26080;SDS011;13991;51.174;4.438;2023-02-23T16:57:50;24.03;;;9.50;;
26080;SDS011;13991;51.174;4.438;2023-02-23T17:00:27;19.93;;;8.60;;
26080;SDS011;13991;51.174;4.438;2023-02-23T17:02:56;22.37;;;8.60;;
26080;SDS011;13991;51.174;4.438;2023-02-23T17:05:22;21.57;;;9.33;;
26080;SDS011;13991;51.174;4.438;2023-02-23T17:07:52;19.00;;;9.70;;
26080;SDS011;13991;51.174;4.438;2023-02-23T17:10:22;26.17;;;8.73;;
26080;SDS011;13991;51.174;4.438;2023-02-23T17:12:53;27.37;;;8.80;;
26080;SDS011;13991;51.174;4.438;2023-02-23T17:15:22;16.20;;;7.73;;